sensor_id;sensor_type;location;lat;lon;timestamp;pressure;altitude;pressure_sealevel;temperature;humidity
69247;BME280;56358;56.328;43.992;2023-01-25T00:01:45;102113.22;;;-6.01;78.10
69247;BME280;56358;56.328;43.992;2023-01-25T00:03:45;102102.78;;;-5.99;78.04
69247;BME280;56358;56.328;43.992;2023-01-25T00:05:46;102117.59;;;-5.97;77.98
69247;BME280;56358;56.328;43.992;2023-01-25T00:07:47;102119.44;;;-5.91;78.20
69247;BME280;56358;56.328;43.992;2023-01-25T00:09:47;102106.38;;;-5.90;78.11
69247;BME280;56358;56.328;43.992;2023-01-25T00:11:48;102129.03;;;-5.89;78.05
69247;BME280;56358;56.328;43.992;2023-01-25T00:13:52;102097.59;;;-5.98;77.73
69247;BME280;56358;56.328;43.992;2023-01-25T00:15:52;102122.16;;;-5.85;77.58
69247;BME280;56358;56.328;43.992;2023-01-25T00:17:53;102109.75;;;-5.97;77.56
69247;BME280;56358;56.328;43.992;2023-01-25T00:19:53;102117.78;;;-5.84;77.70
69247;BME280;56358;56.328;43.992;2023-01-25T00:21:54;102123.06;;;-5.81;77.74
69247;BME280;56358;56.328;43.992;2023-01-25T00:23:55;102107.28;;;-5.89;77.72
69247;BME280;56358;56.328;43.992;2023-01-25T00:25:56;102104.81;;;-5.80;77.61
69247;BME280;56358;56.328;43.992;2023-01-25T00:27:57;102114.44;;;-5.77;77.63
69247;BME280;56358;56.328;43.992;2023-01-25T00:29:58;102057.09;;;-6.25;77.73
69247;BME280;56358;56.328;43.992;2023-01-25T00:38:37;102109.13;;;-5.82;77.76
69247;BME280;56358;56.328;43.992;2023-01-25T00:40:37;102119.72;;;-5.73;77.63
69247;BME280;56358;56.328;43.992;2023-01-25T00:42:39;102119.66;;;-5.77;77.65
69247;BME280;56358;56.328;43.992;2023-01-25T00:44:39;102030.16;;;-6.24;77.66
69247;BME280;56358;56.328;43.992;2023-01-25T00:46:40;102121.53;;;-5.68;77.69
69247;BME280;56358;56.328;43.992;2023-01-25T00:48:41;102114.63;;;-5.65;77.72
69247;BME280;56358;56.328;43.992;2023-01-25T00:50:42;102137.28;;;-5.64;77.44
69247;BME280;56358;56.328;43.992;2023-01-25T00:52:42;102132.09;;;-5.61;77.40
69247;BME280;56358;56.328;43.992;2023-01-25T00:54:43;102057.34;;;-6.11;77.38
69247;BME280;56358;56.328;43.992;2023-01-25T00:56:44;102117.28;;;-5.62;77.49
69247;BME280;56358;56.328;43.992;2023-01-25T00:58:44;102113.81;;;-5.61;77.53
69247;BME280;56358;56.328;43.992;2023-01-25T01:00:45;102125.13;;;-5.60;77.55
69247;BME280;56358;56.328;43.992;2023-01-25T01:02:46;102106.72;;;-5.68;77.49
69247;BME280;56358;56.328;43.992;2023-01-25T01:04:46;102105.06;;;-5.61;77.46
69247;BME280;56358;56.328;43.992;2023-01-25T01:06:47;102109.47;;;-5.60;77.50
69247;BME280;56358;56.328;43.992;2023-01-25T01:08:47;102104.22;;;-5.60;77.55
69247;BME280;56358;56.328;43.992;2023-01-25T01:10:48;102089.41;;;-5.61;77.41
69247;BME280;56358;56.328;43.992;2023-01-25T01:12:50;102011.22;;;-6.10;77.47
69247;BME280;56358;56.328;43.992;2023-01-25T01:14:50;101987.44;;;-6.27;77.61
69247;BME280;56358;56.328;43.992;2023-01-25T01:16:51;102101.41;;;-5.76;77.85
69247;BME280;56358;56.328;43.992;2023-01-25T01:18:52;102077.09;;;-5.70;77.77
69247;BME280;56358;56.328;43.992;2023-01-25T01:20:53;102082.44;;;-5.64;77.87
69247;BME280;56358;56.328;43.992;2023-01-25T01:22:54;102089.34;;;-5.66;78.10
69247;BME280;56358;56.328;43.992;2023-01-25T01:24:55;102078.78;;;-5.74;77.97
69247;BME280;56358;56.328;43.992;2023-01-25T01:26:55;102102.41;;;-5.66;77.98
69247;BME280;56358;56.328;43.992;2023-01-25T01:28:57;101982.09;;;-6.35;78.19
69247;BME280;56358;56.328;43.992;2023-01-25T01:31:03;102102.44;;;-5.64;78.33
69247;BME280;56358;56.328;43.992;2023-01-25T01:33:04;102072.75;;;-5.68;78.26
69247;BME280;56358;56.328;43.992;2023-01-25T01:35:05;102106.06;;;-5.55;78.27
69247;BME280;56358;56.328;43.992;2023-01-25T01:37:06;102096.50;;;-5.52;78.08
69247;BME280;56358;56.328;43.992;2023-01-25T01:39:07;102088.63;;;-5.56;78.11
69247;BME280;56358;56.328;43.992;2023-01-25T01:41:09;102095.69;;;-5.48;77.95
69247;BME280;56358;56.328;43.992;2023-01-25T01:43:21;102073.84;;;-5.53;77.99
69247;BME280;56358;56.328;43.992;2023-01-25T01:45:47;102097.53;;;-5.41;77.90
69247;BME280;56358;56.328;43.992;2023-01-25T01:47:49;102056.34;;;-5.59;77.87
69247;BME280;56358;56.328;43.992;2023-01-25T01:49:56;102020.00;;;-6.05;77.85
69247;BME280;56358;56.328;43.992;2023-01-25T01:52:09;102087.13;;;-5.40;77.69
69247;BME280;56358;56.328;43.992;2023-01-25T01:54:16;102059.94;;;-5.51;77.42
69247;BME280;56358;56.328;43.992;2023-01-25T01:56:30;102019.31;;;-5.90;77.58
69247;BME280;56358;56.328;43.992;2023-01-25T01:58:32;102079.16;;;-5.49;77.45
69247;BME280;56358;56.328;43.992;2023-01-25T02:00:35;102093.19;;;-5.41;77.65
69247;BME280;56358;56.328;43.992;2023-01-25T02:02:37;102087.97;;;-5.41;77.72
69247;BME280;56358;56.328;43.992;2023-01-25T02:04:37;102106.28;;;-5.39;77.64
69247;BME280;56358;56.328;43.992;2023-01-25T02:06:45;102100.19;;;-5.40;78.02
69247;BME280;56358;56.328;43.992;2023-01-25T02:08:47;102106.34;;;-5.34;77.87
69247;BME280;56358;56.328;43.992;2023-01-25T02:10:49;102114.19;;;-5.34;77.68
69247;BME280;56358;56.328;43.992;2023-01-25T02:12:51;101996.69;;;-5.90;77.75
69247;BME280;56358;56.328;43.992;2023-01-25T02:14:53;102067.06;;;-5.41;77.54
69247;BME280;56358;56.328;43.992;2023-01-25T02:17:09;101996.88;;;-5.77;77.59
69247;BME280;56358;56.328;43.992;2023-01-25T02:19:18;102082.06;;;-5.26;77.56
69247;BME280;56358;56.328;43.992;2023-01-25T02:21:25;101887.97;;;-6.47;77.22
69247;BME280;56358;56.328;43.992;2023-01-25T02:23:47;102084.66;;;-5.29;77.34
69247;BME280;56358;56.328;43.992;2023-01-25T02:25:50;102096.06;;;-5.22;77.28
69247;BME280;56358;56.328;43.992;2023-01-25T02:27:54;102086.47;;;-5.22;77.50
69247;BME280;56358;56.328;43.992;2023-01-25T02:29:57;102077.75;;;-5.24;77.53
69247;BME280;56358;56.328;43.992;2023-01-25T02:32:05;101991.69;;;-5.76;77.57
69247;BME280;56358;56.328;43.992;2023-01-25T02:34:05;102086.47;;;-5.22;77.50
69247;BME280;56358;56.328;43.992;2023-01-25T02:38:08;102082.09;;;-5.23;77.38
69247;BME280;56358;56.328;43.992;2023-01-25T02:40:10;102084.72;;;-5.23;77.68
69247;BME280;56358;56.328;43.992;2023-01-25T02:42:11;102067.09;;;-5.38;77.55
69247;BME280;56358;56.328;43.992;2023-01-25T02:44:27;102107.38;;;-5.25;77.59
69247;BME280;56358;56.328;43.992;2023-01-25T02:46:31;102035.56;;;-5.50;77.97
69247;BME280;56358;56.328;43.992;2023-01-25T02:48:32;102074.19;;;-5.30;77.60
69247;BME280;56358;56.328;43.992;2023-01-25T02:50:32;102083.84;;;-5.25;77.88
69247;BME280;56358;56.328;43.992;2023-01-25T02:52:33;102065.44;;;-5.29;77.90
69247;BME280;56358;56.328;43.992;2023-01-25T02:54:34;102060.22;;;-5.31;78.04
69247;BME280;56358;56.328;43.992;2023-01-25T02:56:35;102010.13;;;-5.62;77.82
69247;BME280;56358;56.328;43.992;2023-01-25T02:58:36;102086.56;;;-5.17;77.73
69247;BME280;56358;56.328;43.992;2023-01-25T03:00:36;102078.66;;;-5.18;77.65
69247;BME280;56358;56.328;43.992;2023-01-25T03:02:37;102043.56;;;-5.38;77.75
69247;BME280;56358;56.328;43.992;2023-01-25T03:04:37;102093.50;;;-5.16;77.79
69247;BME280;56358;56.328;43.992;2023-01-25T03:06:39;102072.66;;;-5.11;77.59
69247;BME280;56358;56.328;43.992;2023-01-25T03:08:39;102067.47;;;-5.10;77.63
69247;BME280;56358;56.328;43.992;2023-01-25T03:10:40;102082.19;;;-5.15;77.42
69247;BME280;56358;56.328;43.992;2023-01-25T03:12:41;102065.75;;;-5.08;77.60
69247;BME280;56358;56.328;43.992;2023-01-25T03:14:41;102045.56;;;-5.18;77.56
69247;BME280;56358;56.328;43.992;2023-01-25T03:16:43;102036.03;;;-5.14;77.58
69247;BME280;56358;56.328;43.992;2023-01-25T03:18:44;102063.16;;;-5.06;76.98
69247;BME280;56358;56.328;43.992;2023-01-25T03:20:45;102066.66;;;-5.04;77.20
69247;BME280;56358;56.328;43.992;2023-01-25T03:22:45;102076.25;;;-5.03;77.26
69247;BME280;56358;56.328;43.992;2023-01-25T03:24:46;102078.03;;;-5.02;77.31
69247;BME280;56358;56.328;43.992;2023-01-25T03:26:47;102071.94;;;-4.99;77.18
69247;BME280;56358;56.328;43.992;2023-01-25T03:29:06;102073.66;;;-5.01;77.25
69247;BME280;56358;56.328;43.992;2023-01-25T03:31:08;102072.78;;;-5.02;77.42
69247;BME280;56358;56.328;43.992;2023-01-25T03:33:09;102066.59;;;-5.10;77.13
69247;BME280;56358;56.328;43.992;2023-01-25T03:35:10;102061.44;;;-5.02;77.52
69247;BME280;56358;56.328;43.992;2023-01-25T03:37:10;102035.09;;;-5.18;77.22
69247;BME280;56358;56.328;43.992;2023-01-25T03:39:11;102050.00;;;-5.09;77.27
69247;BME280;56358;56.328;43.992;2023-01-25T03:41:12;102045.69;;;-5.09;77.33
69247;BME280;56358;56.328;43.992;2023-01-25T03:43:13;102056.97;;;-5.11;77.62
69247;BME280;56358;56.328;43.992;2023-01-25T03:45:14;102042.00;;;-5.25;77.76
69247;BME280;56358;56.328;43.992;2023-01-25T03:47:15;102071.81;;;-5.10;77.86
69247;BME280;56358;56.328;43.992;2023-01-25T03:49:15;102070.91;;;-5.11;78.04
69247;BME280;56358;56.328;43.992;2023-01-25T03:51:17;102071.03;;;-5.03;77.74
69247;BME280;56358;56.328;43.992;2023-01-25T03:53:22;102068.41;;;-5.03;77.53
69247;BME280;56358;56.328;43.992;2023-01-25T03:55:28;102045.50;;;-5.23;77.91
69247;BME280;56358;56.328;43.992;2023-01-25T03:57:29;101996.38;;;-5.50;77.87
69247;BME280;56358;56.328;43.992;2023-01-25T03:59:29;102060.53;;;-5.05;77.72
69247;BME280;56358;56.328;43.992;2023-01-25T04:01:30;102050.94;;;-5.04;77.69
69247;BME280;56358;56.328;43.992;2023-01-25T04:03:31;102063.16;;;-5.05;77.82
69247;BME280;56358;56.328;43.992;2023-01-25T04:05:32;102063.94;;;-5.12;78.12
69247;BME280;56358;56.328;43.992;2023-01-25T04:07:33;102068.44;;;-4.98;77.85
69247;BME280;56358;56.328;43.992;2023-01-25T04:09:33;102047.47;;;-5.03;77.68
69247;BME280;56358;56.328;43.992;2023-01-25T04:11:34;102071.13;;;-4.95;77.75
69247;BME280;56358;56.328;43.992;2023-01-25T04:13:38;102050.91;;;-5.10;77.42
69247;BME280;56358;56.328;43.992;2023-01-25T04:15:39;102070.22;;;-4.97;77.65
69247;BME280;56358;56.328;43.992;2023-01-25T04:17:39;102073.75;;;-4.95;77.93
69247;BME280;56358;56.328;43.992;2023-01-25T04:19:40;102057.97;;;-5.00;77.81
69247;BME280;56358;56.328;43.992;2023-01-25T04:21:41;102071.09;;;-4.97;77.75
69247;BME280;56358;56.328;43.992;2023-01-25T04:23:41;101956.09;;;-5.64;77.93
69247;BME280;56358;56.328;43.992;2023-01-25T04:25:42;102061.38;;;-5.07;77.91
69247;BME280;56358;56.328;43.992;2023-01-25T04:27:42;102061.47;;;-5.01;77.83
69247;BME280;56358;56.328;43.992;2023-01-25T04:29:43;102066.72;;;-4.99;78.09
69247;BME280;56358;56.328;43.992;2023-01-25T04:31:44;102059.69;;;-5.03;77.98
69247;BME280;56358;56.328;43.992;2023-01-25T04:33:44;102047.41;;;-5.09;77.92
69247;BME280;56358;56.328;43.992;2023-01-25T04:35:45;102073.72;;;-4.97;77.78
69247;BME280;56358;56.328;43.992;2023-01-25T04:37:56;101992.00;;;-5.49;77.79
69247;BME280;56358;56.328;43.992;2023-01-25T04:39:57;102076.28;;;-4.98;77.88
69247;BME280;56358;56.328;43.992;2023-01-25T04:41:58;102083.25;;;-5.00;77.71
69247;BME280;56358;56.328;43.992;2023-01-25T04:43:58;102093.72;;;-5.02;77.67
69247;BME280;56358;56.328;43.992;2023-01-25T04:46:02;101988.56;;;-5.45;78.15
69247;BME280;56358;56.328;43.992;2023-01-25T04:48:05;102065.78;;;-5.03;78.09
69247;BME280;56358;56.328;43.992;2023-01-25T04:50:09;102069.28;;;-5.02;78.14
69247;BME280;56358;56.328;43.992;2023-01-25T04:52:10;102067.56;;;-5.02;78.32
69247;BME280;56358;56.328;43.992;2023-01-25T04:54:11;102028.94;;;-5.22;78.62
69247;BME280;56358;56.328;43.992;2023-01-25T04:56:11;102049.19;;;-5.05;78.10
69247;BME280;56358;56.328;43.992;2023-01-25T04:58:12;102063.31;;;-4.92;77.92
69247;BME280;56358;56.328;43.992;2023-01-25T05:00:13;102065.94;;;-4.89;78.06
69247;BME280;56358;56.328;43.992;2023-01-25T05:02:14;102065.09;;;-4.88;77.60
69247;BME280;56358;56.328;43.992;2023-01-25T05:04:15;101986.13;;;-5.31;77.63
69247;BME280;56358;56.328;43.992;2023-01-25T05:06:15;102059.88;;;-4.86;77.43
69247;BME280;56358;56.328;43.992;2023-01-25T05:08:16;102060.75;;;-4.86;77.42
69247;BME280;56358;56.328;43.992;2023-01-25T05:10:17;102059.00;;;-4.85;77.49
69247;BME280;56358;56.328;43.992;2023-01-25T05:12:17;102069.50;;;-4.84;77.19
69247;BME280;56358;56.328;43.992;2023-01-25T05:14:18;102073.00;;;-4.83;77.46
69247;BME280;56358;56.328;43.992;2023-01-25T05:16:19;102047.59;;;-4.92;77.55
69247;BME280;56358;56.328;43.992;2023-01-25T05:18:19;101986.16;;;-5.28;77.39
69247;BME280;56358;56.328;43.992;2023-01-25T05:20:20;102089.59;;;-4.81;77.26
69247;BME280;56358;56.328;43.992;2023-01-25T05:22:21;101907.16;;;-5.79;77.46
69247;BME280;56358;56.328;43.992;2023-01-25T05:24:22;101983.44;;;-5.36;77.49
69247;BME280;56358;56.328;43.992;2023-01-25T05:26:23;102078.19;;;-4.86;77.33
69247;BME280;56358;56.328;43.992;2023-01-25T05:28:42;102081.63;;;-4.89;77.26
69247;BME280;56358;56.328;43.992;2023-01-25T05:30:43;102081.63;;;-4.91;77.59
69247;BME280;56358;56.328;43.992;2023-01-25T05:32:43;101995.59;;;-5.41;77.39
69247;BME280;56358;56.328;43.992;2023-01-25T05:34:44;102099.09;;;-4.88;77.48
69247;BME280;56358;56.328;43.992;2023-01-25T05:36:45;102070.22;;;-4.97;77.80
69247;BME280;56358;56.328;43.992;2023-01-25T05:38:46;102081.59;;;-4.95;77.35
69247;BME280;56358;56.328;43.992;2023-01-25T05:40:47;102081.63;;;-4.92;77.28
69247;BME280;56358;56.328;43.992;2023-01-25T05:42:57;102078.19;;;-4.86;77.67
69247;BME280;56358;56.328;43.992;2023-01-25T05:44:59;102010.63;;;-5.25;77.40
69247;BME280;56358;56.328;43.992;2023-01-25T05:47:00;102078.16;;;-4.88;77.70
69247;BME280;56358;56.328;43.992;2023-01-25T05:49:01;101998.31;;;-5.33;77.34
69247;BME280;56358;56.328;43.992;2023-01-25T05:51:02;102080.84;;;-4.83;77.46
69247;BME280;56358;56.328;43.992;2023-01-25T05:53:03;102087.81;;;-4.82;77.45
69247;BME280;56358;56.328;43.992;2023-01-25T05:55:03;102080.88;;;-4.80;77.45
69247;BME280;56358;56.328;43.992;2023-01-25T05:57:04;102072.09;;;-4.87;77.42
69247;BME280;56358;56.328;43.992;2023-01-25T05:59:05;102097.47;;;-4.78;77.31
69247;BME280;56358;56.328;43.992;2023-01-25T06:01:06;102049.28;;;-4.96;77.51
69247;BME280;56358;56.328;43.992;2023-01-25T06:03:07;102094.84;;;-4.78;77.42
69247;BME280;56358;56.328;43.992;2023-01-25T06:05:08;101933.41;;;-5.70;77.46
69247;BME280;56358;56.328;43.992;2023-01-25T06:07:09;102081.75;;;-4.80;77.24
69247;BME280;56358;56.328;43.992;2023-01-25T06:09:10;102086.13;;;-4.79;77.33
69247;BME280;56358;56.328;43.992;2023-01-25T06:11:22;102068.63;;;-4.84;77.46
69247;BME280;56358;56.328;43.992;2023-01-25T06:13:23;102048.44;;;-4.95;76.95
69247;BME280;56358;56.328;43.992;2023-01-25T06:15:24;102101.00;;;-4.73;77.21
69247;BME280;56358;56.328;43.992;2023-01-25T06:17:25;102084.41;;;-4.77;77.20
69247;BME280;56358;56.328;43.992;2023-01-25T06:19:26;102020.34;;;-5.14;77.09
69247;BME280;56358;56.328;43.992;2023-01-25T06:21:26;102073.06;;;-4.77;77.13
69247;BME280;56358;56.328;43.992;2023-01-25T06:23:27;101997.59;;;-5.20;76.97
69247;BME280;56358;56.328;43.992;2023-01-25T06:25:28;102084.38;;;-4.78;77.01
69247;BME280;56358;56.328;43.992;2023-01-25T06:27:28;102099.41;;;-4.63;77.07
69247;BME280;56358;56.328;43.992;2023-01-25T06:29:29;102099.41;;;-4.62;76.87
69247;BME280;56358;56.328;43.992;2023-01-25T06:31:29;102118.59;;;-4.63;76.76
69247;BME280;56358;56.328;43.992;2023-01-25T06:33:30;102106.34;;;-4.65;77.11
69247;BME280;56358;56.328;43.992;2023-01-25T06:35:32;102112.50;;;-4.63;77.05
69247;BME280;56358;56.328;43.992;2023-01-25T06:37:33;102097.59;;;-4.67;77.05
69247;BME280;56358;56.328;43.992;2023-01-25T06:39:34;102097.59;;;-4.67;76.87
69247;BME280;56358;56.328;43.992;2023-01-25T06:41:34;102041.44;;;-4.97;76.73
69247;BME280;56358;56.328;43.992;2023-01-25T06:43:35;102072.19;;;-4.76;76.75
69247;BME280;56358;56.328;43.992;2023-01-25T06:45:36;102069.56;;;-4.79;76.62
69247;BME280;56358;56.328;43.992;2023-01-25T06:47:38;102089.81;;;-4.61;76.93
69247;BME280;56358;56.328;43.992;2023-01-25T06:49:39;102097.69;;;-4.58;76.80
69247;BME280;56358;56.328;43.992;2023-01-25T06:51:39;102101.19;;;-4.59;76.89
69247;BME280;56358;56.328;43.992;2023-01-25T06:53:42;102087.19;;;-4.63;76.83
69247;BME280;56358;56.328;43.992;2023-01-25T06:55:43;102011.69;;;-5.06;76.57
69247;BME280;56358;56.328;43.992;2023-01-25T06:57:43;102094.22;;;-4.56;76.77
69247;BME280;56358;56.328;43.992;2023-01-25T06:59:44;102106.47;;;-4.55;76.72
69247;BME280;56358;56.328;43.992;2023-01-25T07:01:45;102109.13;;;-4.50;76.65
69247;BME280;56358;56.328;43.992;2023-01-25T07:03:50;102110.00;;;-4.49;76.47
69247;BME280;56358;56.328;43.992;2023-01-25T07:05:57;102014.34;;;-5.04;76.41
69247;BME280;56358;56.328;43.992;2023-01-25T07:07:58;102101.22;;;-4.53;76.46
69247;BME280;56358;56.328;43.992;2023-01-25T07:09:59;102001.31;;;-4.99;76.29
69247;BME280;56358;56.328;43.992;2023-01-25T07:12:01;102075.00;;;-4.59;76.39
69247;BME280;56358;56.328;43.992;2023-01-25T07:14:04;102063.72;;;-4.53;76.35
69247;BME280;56358;56.328;43.992;2023-01-25T07:16:07;102004.88;;;-4.93;76.08
69247;BME280;56358;56.328;43.992;2023-01-25T07:18:08;102096.16;;;-4.39;76.09
69247;BME280;56358;56.328;43.992;2023-01-25T07:20:09;102072.41;;;-4.56;76.19
69247;BME280;56358;56.328;43.992;2023-01-25T07:22:10;102092.69;;;-4.36;75.97
69247;BME280;56358;56.328;43.992;2023-01-25T07:24:13;102086.56;;;-4.37;75.93
69247;BME280;56358;56.328;43.992;2023-01-25T07:26:18;102084.94;;;-4.27;76.02
69247;BME280;56358;56.328;43.992;2023-01-25T07:28:19;102088.41;;;-4.28;75.42
69247;BME280;56358;56.328;43.992;2023-01-25T07:30:20;102043.66;;;-4.51;75.53
69247;BME280;56358;56.328;43.992;2023-01-25T07:32:21;102075.31;;;-4.30;75.55
69247;BME280;56358;56.328;43.992;2023-01-25T07:34:21;102066.59;;;-4.27;75.52
69247;BME280;56358;56.328;43.992;2023-01-25T07:36:23;102067.47;;;-4.24;75.77
69247;BME280;56358;56.328;43.992;2023-01-25T07:38:23;102090.19;;;-4.23;75.18
69247;BME280;56358;56.328;43.992;2023-01-25T07:40:24;102002.56;;;-4.63;75.12
69247;BME280;56358;56.328;43.992;2023-01-25T07:42:25;102076.19;;;-4.25;75.03
69247;BME280;56358;56.328;43.992;2023-01-25T07:44:25;102000.72;;;-4.74;75.40
69247;BME280;56358;56.328;43.992;2023-01-25T07:46:26;102071.88;;;-4.23;75.16
69247;BME280;56358;56.328;43.992;2023-01-25T07:48:27;102070.16;;;-4.19;75.08
69247;BME280;56358;56.328;43.992;2023-01-25T07:50:28;102073.66;;;-4.17;75.14
69247;BME280;56358;56.328;43.992;2023-01-25T07:52:28;102066.63;;;-4.19;75.14
69247;BME280;56358;56.328;43.992;2023-01-25T07:54:29;102082.44;;;-4.10;74.86
69247;BME280;56358;56.328;43.992;2023-01-25T07:56:34;102081.59;;;-4.09;74.68
69247;BME280;56358;56.328;43.992;2023-01-25T07:58:37;102089.44;;;-4.08;74.85
69247;BME280;56358;56.328;43.992;2023-01-25T08:00:38;102073.75;;;-4.05;74.95
69247;BME280;56358;56.328;43.992;2023-01-25T08:02:41;102072.91;;;-4.02;74.77
69247;BME280;56358;56.328;43.992;2023-01-25T08:04:41;102078.19;;;-3.96;75.06
69247;BME280;56358;56.328;43.992;2023-01-25T08:06:42;102072.13;;;-3.92;74.71
69247;BME280;56358;56.328;43.992;2023-01-25T08:08:47;102074.78;;;-3.87;74.47
69247;BME280;56358;56.328;43.992;2023-01-25T08:10:48;102055.53;;;-3.94;74.38
69247;BME280;56358;56.328;43.992;2023-01-25T08:12:49;102069.56;;;-3.84;74.12
69247;BME280;56358;56.328;43.992;2023-01-25T08:14:49;102052.91;;;-3.92;73.99
69247;BME280;56358;56.328;43.992;2023-01-25T08:16:50;102056.44;;;-3.84;73.85
69247;BME280;56358;56.328;43.992;2023-01-25T08:18:56;102031.88;;;-4.01;74.13
69247;BME280;56358;56.328;43.992;2023-01-25T08:20:57;102070.50;;;-3.73;73.87
69247;BME280;56358;56.328;43.992;2023-01-25T08:22:58;102076.63;;;-3.72;73.42
69247;BME280;56358;56.328;43.992;2023-01-25T08:24:59;102025.78;;;-3.99;73.60
69247;BME280;56358;56.328;43.992;2023-01-25T08:27:00;102059.16;;;-3.72;73.20
69247;BME280;56358;56.328;43.992;2023-01-25T08:29:02;102055.66;;;-3.71;73.36
69247;BME280;56358;56.328;43.992;2023-01-25T08:31:14;102033.72;;;-3.83;73.42
69247;BME280;56358;56.328;43.992;2023-01-25T08:33:15;102077.56;;;-3.64;73.29
69247;BME280;56358;56.328;43.992;2023-01-25T08:35:15;102061.84;;;-3.62;73.16
69247;BME280;56358;56.328;43.992;2023-01-25T08:37:16;102047.88;;;-3.60;73.37
69247;BME280;56358;56.328;43.992;2023-01-25T08:39:17;102047.06;;;-3.49;73.50
69247;BME280;56358;56.328;43.992;2023-01-25T08:41:18;101992.69;;;-3.81;72.94
69247;BME280;56358;56.328;43.992;2023-01-25T08:43:21;101975.22;;;-3.78;72.38
69247;BME280;56358;56.328;43.992;2023-01-25T08:45:21;101993.63;;;-3.73;72.53
69247;BME280;56358;56.328;43.992;2023-01-25T08:47:22;102030.53;;;-3.33;72.28
69247;BME280;56358;56.328;43.992;2023-01-25T08:49:23;102023.53;;;-3.32;72.49
69247;BME280;56358;56.328;43.992;2023-01-25T08:51:24;101933.38;;;-3.67;71.54
69247;BME280;56358;56.328;43.992;2023-01-25T08:53:30;101964.91;;;-3.44;71.92
69247;BME280;56358;56.328;43.992;2023-01-25T08:55:34;102023.63;;;-3.03;71.38
69247;BME280;56358;56.328;43.992;2023-01-25T08:57:35;102035.91;;;-3.04;71.56
69247;BME280;56358;56.328;43.992;2023-01-25T08:59:35;102023.63;;;-3.05;71.51
69247;BME280;56358;56.328;43.992;2023-01-25T09:01:36;101949.16;;;-3.48;71.55
69247;BME280;56358;56.328;43.992;2023-01-25T09:03:39;102027.16;;;-2.95;71.12
69247;BME280;56358;56.328;43.992;2023-01-25T09:05:40;102016.66;;;-2.95;71.17
69247;BME280;56358;56.328;43.992;2023-01-25T09:07:41;102022.81;;;-2.93;71.28
69247;BME280;56358;56.328;43.992;2023-01-25T09:09:41;101936.97;;;-3.39;71.00
69247;BME280;56358;56.328;43.992;2023-01-25T09:11:42;101946.59;;;-3.33;71.00
69247;BME280;56358;56.328;43.992;2023-01-25T09:13:43;102009.72;;;-2.82;70.94
69247;BME280;56358;56.328;43.992;2023-01-25T09:15:44;102005.31;;;-2.81;70.93
69247;BME280;56358;56.328;43.992;2023-01-25T09:17:44;102010.59;;;-2.78;70.83
69247;BME280;56358;56.328;43.992;2023-01-25T09:19:46;102015.84;;;-2.75;70.44
69247;BME280;56358;56.328;43.992;2023-01-25T09:21:47;102000.09;;;-2.80;70.60
69247;BME280;56358;56.328;43.992;2023-01-25T09:23:49;101988.72;;;-2.82;70.26
69247;BME280;56358;56.328;43.992;2023-01-25T09:25:57;101994.84;;;-2.78;69.95
69247;BME280;56358;56.328;43.992;2023-01-25T09:27:58;101996.59;;;-2.82;70.19
69247;BME280;56358;56.328;43.992;2023-01-25T09:29:59;101937.03;;;-3.17;70.62
69247;BME280;56358;56.328;43.992;2023-01-25T09:31:59;101998.34;;;-2.82;70.63
69247;BME280;56358;56.328;43.992;2023-01-25T09:34:00;101994.84;;;-2.75;70.60
69247;BME280;56358;56.328;43.992;2023-01-25T09:36:01;101997.47;;;-2.72;70.59
69247;BME280;56358;56.328;43.992;2023-01-25T09:38:02;102000.09;;;-2.72;70.34
69247;BME280;56358;56.328;43.992;2023-01-25T09:40:02;101975.59;;;-2.74;70.29
69247;BME280;56358;56.328;43.992;2023-01-25T09:42:30;101981.69;;;-2.81;70.08
69247;BME280;56358;56.328;43.992;2023-01-25T09:46:49;101975.56;;;-2.88;70.54
69247;BME280;56358;56.328;43.992;2023-01-25T09:54:15;101964.19;;;-2.86;70.60
69247;BME280;56358;56.328;43.992;2023-01-25T09:56:25;101970.31;;;-2.90;70.63
69247;BME280;56358;56.328;43.992;2023-01-25T09:58:32;101965.06;;;-2.88;70.89
69247;BME280;56358;56.328;43.992;2023-01-25T10:00:38;101966.81;;;-2.86;71.16
69247;BME280;56358;56.328;43.992;2023-01-25T10:04:43;101965.09;;;-2.85;70.83
69247;BME280;56358;56.328;43.992;2023-01-25T10:06:51;101942.31;;;-2.91;70.95
69247;BME280;56358;56.328;43.992;2023-01-25T10:11:12;101937.06;;;-2.92;71.10
69247;BME280;56358;56.328;43.992;2023-01-25T10:13:18;101963.34;;;-2.78;71.05
69247;BME280;56358;56.328;43.992;2023-01-25T10:15:23;101943.19;;;-2.84;70.51
69247;BME280;56358;56.328;43.992;2023-01-25T10:17:36;101967.72;;;-2.74;70.58
69247;BME280;56358;56.328;43.992;2023-01-25T10:21:50;101952.84;;;-2.78;70.65
69247;BME280;56358;56.328;43.992;2023-01-25T10:26:33;101936.22;;;-2.85;70.95
69247;BME280;56358;56.328;43.992;2023-01-25T10:28:53;101928.31;;;-2.93;71.15
69247;BME280;56358;56.328;43.992;2023-01-25T10:33:14;101911.69;;;-2.96;71.43
69247;BME280;56358;56.328;43.992;2023-01-25T10:35:23;101928.34;;;-2.74;71.52
69247;BME280;56358;56.328;43.992;2023-01-25T10:37:28;101936.22;;;-2.74;71.13
69247;BME280;56358;56.328;43.992;2023-01-25T10:39:31;101947.56;;;-2.71;71.26
69247;BME280;56358;56.328;43.992;2023-01-25T10:41:40;101924.84;;;-2.68;71.10
69247;BME280;56358;56.328;43.992;2023-01-25T10:43:43;101734.13;;;-3.78;71.19
69247;BME280;56358;56.328;43.992;2023-01-25T10:45:44;101923.09;;;-2.65;70.94
69247;BME280;56358;56.328;43.992;2023-01-25T10:48:00;101886.34;;;-2.85;70.92
69247;BME280;56358;56.328;43.992;2023-01-25T10:50:03;101910.81;;;-2.71;71.22
69247;BME280;56358;56.328;43.992;2023-01-25T10:52:16;101847.84;;;-3.08;70.91
69247;BME280;56358;56.328;43.992;2023-01-25T10:54:17;101909.97;;;-2.70;71.13
69247;BME280;56358;56.328;43.992;2023-01-25T10:56:23;101904.69;;;-2.79;71.37
69247;BME280;56358;56.328;43.992;2023-01-25T10:58:49;101900.34;;;-2.74;71.17
69247;BME280;56358;56.328;43.992;2023-01-25T11:00:50;101896.84;;;-2.74;71.52